createdAt,value
2022-08-12T00:01:01.868Z,2.00
2022-08-12T00:03:47.438Z,1.83
2022-08-12T00:06:33.369Z,1.95
2022-08-12T00:09:24.384Z,4.10
2022-08-12T00:12:12.740Z,3.22
2022-08-12T00:14:59.327Z,2.28
2022-08-12T00:20:16.436Z,3.53
2022-08-12T00:23:03.038Z,1.98
2022-08-12T00:26:21.798Z,3.17
2022-08-12T00:29:02.566Z,3.63
2022-08-12T00:31:48.608Z,4.22
2022-08-12T00:34:36.841Z,3.72
2022-08-12T00:37:24.056Z,3.83
2022-08-12T00:40:10.947Z,6.55
2022-08-12T00:42:40.731Z,4.15
2022-08-12T00:45:10.185Z,9.63
2022-08-12T00:47:40.861Z,5.45
2022-08-12T00:50:18.330Z,4.13
2022-08-12T00:52:48.554Z,3.83
2022-08-12T00:55:18.271Z,4.45
2022-08-12T00:57:48.864Z,6.47
2022-08-12T01:00:21.582Z,6.20
2022-08-12T01:02:52.824Z,6.35
2022-08-12T01:05:41.631Z,5.00
2022-08-12T01:08:27.902Z,4.10
2022-08-12T01:11:15.238Z,4.07
2022-08-12T01:13:48.427Z,7.97
2022-08-12T01:16:19.807Z,8.55
2022-08-12T01:18:48.257Z,4.68
2022-08-12T01:21:44.962Z,4.55
2022-08-12T01:24:33.905Z,4.93
2022-08-12T01:27:07.511Z,4.00
2022-08-12T01:29:42.833Z,3.55
2022-08-12T01:32:15.107Z,4.30
2022-08-12T01:34:49.345Z,4.97
2022-08-12T01:37:20.366Z,6.65
2022-08-12T01:40:33.273Z,3.35
2022-08-12T01:42:46.992Z,5.88
2022-08-12T01:45:17.724Z,4.32
2022-08-12T01:48:05.894Z,8.45
2022-08-12T01:50:43.159Z,4.78
2022-08-12T01:53:13.722Z,3.53
2022-08-12T01:55:46.512Z,4.90
2022-08-12T01:58:28.991Z,4.13
2022-08-12T02:01:03.916Z,4.43
2022-08-12T02:04:13.418Z,6.60
2022-08-12T02:07:11.627Z,6.97
2022-08-12T02:10:11.383Z,4.25
2022-08-12T02:13:10.109Z,4.90
2022-08-12T02:15:46.762Z,5.72
2022-08-12T02:18:32.768Z,5.22
2022-08-12T02:21:05.393Z,5.68
2022-08-12T02:23:36.283Z,6.43
2022-08-12T02:26:08.163Z,3.70
2022-08-12T02:28:39.187Z,4.65
2022-08-12T02:31:10.064Z,7.63
2022-08-12T02:33:39.312Z,5.88
2022-08-12T02:36:08.740Z,3.45
2022-08-12T02:38:37.877Z,6.57
2022-08-12T02:41:08.360Z,10.93
2022-08-12T02:43:46.789Z,7.57
2022-08-12T02:46:19.583Z,9.98
2022-08-12T02:48:52.400Z,6.63
2022-08-12T02:51:24.602Z,4.63
2022-08-12T02:54:02.915Z,6.30
2022-08-12T02:56:38.019Z,4.72
2022-08-12T02:59:12.254Z,6.20
2022-08-12T03:01:48.198Z,6.35
2022-08-12T03:04:24.555Z,6.57
2022-08-12T03:07:05.519Z,6.85
2022-08-12T03:10:03.717Z,5.55
2022-08-12T03:12:33.778Z,5.38
2022-08-12T03:15:10.183Z,5.95
2022-08-12T03:18:24.610Z,9.57
2022-08-12T03:20:41.014Z,4.97
2022-08-12T03:23:17.338Z,4.90
2022-08-12T03:25:59.380Z,5.90
2022-08-12T03:28:47.175Z,11.98
2022-08-12T03:31:17.726Z,5.07
2022-08-12T03:34:00.568Z,7.72
2022-08-12T03:36:30.812Z,8.63
2022-08-12T03:39:35.442Z,12.20
2022-08-12T03:42:28.322Z,8.15
2022-08-12T03:45:30.816Z,4.93
2022-08-12T03:48:23.605Z,4.28
2022-08-12T03:51:10.271Z,5.53
2022-08-12T03:53:56.912Z,6.78
2022-08-12T03:56:43.175Z,4.20
2022-08-12T03:59:29.110Z,7.28
2022-08-12T04:01:58.619Z,7.28
2022-08-12T04:04:34.850Z,9.80
2022-08-12T04:07:06.651Z,6.20
2022-08-12T04:09:35.668Z,5.43
2022-08-12T04:12:22.846Z,8.45
2022-08-12T04:14:57.093Z,9.18
2022-08-12T04:17:26.860Z,5.13
2022-08-12T04:19:57.395Z,7.32
2022-08-12T04:22:30.950Z,7.53
2022-08-12T04:25:02.438Z,5.13
2022-08-12T04:27:32.278Z,7.70
2022-08-12T04:30:16.369Z,5.50
2022-08-12T04:32:53.825Z,5.85
2022-08-12T04:35:23.859Z,4.80
2022-08-12T04:37:58.452Z,6.85
2022-08-12T04:40:31.237Z,5.68
2022-08-12T04:43:01.199Z,7.50
2022-08-12T04:45:30.644Z,7.68
2022-08-12T04:47:59.074Z,5.28
2022-08-12T04:50:36.116Z,6.03
2022-08-12T04:53:06.773Z,8.77
2022-08-12T04:55:38.215Z,8.25
2022-08-12T04:58:06.849Z,9.27
2022-08-12T05:00:36.101Z,10.27
2022-08-12T05:03:05.723Z,8.77
2022-08-12T05:05:37.103Z,8.43
2022-08-12T05:08:07.977Z,7.38
2022-08-12T05:10:36.484Z,6.85
2022-08-12T05:13:09.495Z,8.15
2022-08-12T05:16:03.766Z,8.75
2022-08-12T05:18:29.766Z,17.13
2022-08-12T05:21:00.945Z,14.05
2022-08-12T05:23:32.120Z,12.52
2022-08-12T05:26:04.516Z,9.82
2022-08-12T05:28:33.506Z,6.43
2022-08-12T05:31:03.030Z,4.65
2022-08-12T05:33:38.025Z,7.30
2022-08-12T05:36:09.514Z,3.35
2022-08-12T05:38:55.627Z,5.78
2022-08-12T05:41:25.404Z,4.85
2022-08-12T05:43:55.738Z,4.90
2022-08-12T05:46:26.109Z,7.95
2022-08-12T05:48:56.379Z,5.05
2022-08-12T05:51:39.829Z,4.15
2022-08-12T05:54:10.943Z,6.78
2022-08-12T05:56:40.158Z,3.15
2022-08-12T05:59:11.339Z,5.68
2022-08-12T06:02:11.254Z,2.22
2022-08-12T06:04:28.789Z,4.35
2022-08-12T06:06:58.773Z,6.07
2022-08-12T06:09:31.063Z,5.80
2022-08-12T06:12:06.248Z,6.63
2022-08-12T06:14:38.777Z,3.03
2022-08-12T06:17:09.282Z,4.85
2022-08-12T06:20:26.971Z,5.28
2022-08-12T06:22:28.510Z,2.55
2022-08-12T06:24:57.073Z,3.42
2022-08-12T06:27:25.484Z,2.45
2022-08-12T06:30:08.283Z,2.38
2022-08-12T06:32:58.449Z,5.88
2022-08-12T06:35:47.843Z,4.82
2022-08-12T06:38:20.743Z,7.57
2022-08-12T06:41:08.306Z,0.30
2022-08-12T06:44:06.431Z,1.00
2022-08-12T06:46:26.849Z,0.30
2022-08-12T06:48:59.161Z,1.23
2022-08-12T06:51:29.374Z,0.10
2022-08-12T06:54:00.195Z,0.10
2022-08-12T06:56:59.482Z,0.13
2022-08-12T06:59:17.046Z,0.30
2022-08-12T07:01:51.240Z,0.10
2022-08-12T07:04:38.448Z,0.20
2022-08-12T07:07:08.733Z,0.10
2022-08-12T07:10:01.582Z,0.20
2022-08-12T07:12:28.752Z,0.20
2022-08-12T07:14:58.368Z,0.10
2022-08-12T07:17:31.654Z,0.10
2022-08-12T07:20:04.299Z,0.22
2022-08-12T07:22:33.489Z,0.22
2022-08-12T07:25:20.887Z,0.10
2022-08-12T07:27:53.948Z,0.25
2022-08-12T07:30:23.316Z,0.82
2022-08-12T07:32:52.470Z,0.20
2022-08-12T07:35:21.197Z,0.15
2022-08-12T07:37:51.641Z,0.28
2022-08-12T07:40:22.437Z,1.02
2022-08-12T07:42:50.976Z,0.10
2022-08-12T07:45:20.427Z,0.15
2022-08-12T07:47:50.009Z,0.10
2022-08-12T07:50:23.780Z,0.20
2022-08-12T07:52:52.758Z,0.50
2022-08-12T07:55:22.538Z,0.63
2022-08-12T07:57:54.250Z,0.32
2022-08-12T08:00:22.830Z,0.60
2022-08-12T08:02:54.544Z,0.32
2022-08-12T08:05:25.034Z,0.20
2022-08-12T08:07:55.723Z,0.32
2022-08-12T08:10:26.359Z,0.10
2022-08-12T08:12:53.791Z,0.10
2022-08-12T08:15:38.539Z,0.20
2022-08-12T08:18:18.416Z,0.15
2022-08-12T08:20:56.094Z,0.20
2022-08-12T08:23:46.170Z,0.65
2022-08-12T08:26:20.669Z,0.20
2022-08-12T08:28:50.244Z,1.60
2022-08-12T08:31:18.810Z,3.88
2022-08-12T08:34:09.687Z,3.45
2022-08-12T08:36:35.645Z,2.65
2022-08-12T08:39:05.542Z,2.30
2022-08-12T08:42:16.224Z,3.35
2022-08-12T08:44:42.556Z,3.38
2022-08-12T08:47:14.036Z,1.60
2022-08-12T08:49:42.784Z,5.57
2022-08-12T08:52:12.801Z,1.83
2022-08-12T08:55:01.203Z,2.70
2022-08-12T08:57:43.696Z,5.15
2022-08-12T09:00:15.304Z,4.28
2022-08-12T09:02:49.115Z,2.53
2022-08-12T09:05:27.084Z,2.38
2022-08-12T09:08:11.920Z,3.72
2022-08-12T09:10:45.316Z,2.90
2022-08-12T09:14:11.055Z,2.88
2022-08-12T09:16:20.877Z,3.13
2022-08-12T09:18:52.129Z,3.78
2022-08-12T09:24:10.455Z,1.73
2022-08-12T09:26:46.255Z,1.98
2022-08-12T09:29:20.407Z,3.40
2022-08-12T09:32:31.342Z,2.10
2022-08-12T09:34:58.151Z,2.53
2022-08-12T09:37:28.411Z,2.42
2022-08-12T09:42:07.316Z,3.25
2022-08-12T09:43:24.947Z,2.38
2022-08-12T09:46:06.125Z,2.30
2022-08-12T09:48:56.518Z,6.03
2022-08-12T09:51:37.317Z,3.75
2022-08-12T09:54:31.640Z,2.67
2022-08-12T09:58:07.112Z,5.55
2022-08-12T10:00:14.954Z,1.50
2022-08-12T10:02:45.267Z,6.38
2022-08-12T10:05:22.778Z,1.75
2022-08-12T10:08:13.458Z,4.65
2022-08-12T10:11:05.807Z,5.97
2022-08-12T10:13:44.569Z,3.78
2022-08-12T10:16:18.626Z,1.95
2022-08-12T10:18:55.840Z,5.88
2022-08-12T10:21:35.623Z,2.20
2022-08-12T10:24:06.159Z,2.90
2022-08-12T10:26:53.496Z,2.22
2022-08-12T10:30:03.377Z,1.95
2022-08-12T10:32:44.244Z,2.85
2022-08-12T10:35:17.500Z,2.63
2022-08-12T10:38:33.655Z,2.67
2022-08-12T10:40:55.802Z,2.95
2022-08-12T10:43:54.262Z,1.90
2022-08-12T10:46:30.705Z,3.60
2022-08-12T10:49:06.930Z,2.10
2022-08-12T10:52:31.112Z,3.53
2022-08-12T10:54:42.639Z,5.75
2022-08-12T10:57:18.295Z,2.58
2022-08-12T11:00:30.947Z,2.88
2022-08-12T11:04:35.500Z,1.77
2022-08-12T11:07:09.189Z,2.60
2022-08-12T11:08:43.035Z,5.55
2022-08-12T11:12:07.447Z,3.15
2022-08-12T11:14:09.891Z,2.55
2022-08-12T11:17:34.758Z,1.80
2022-08-12T11:19:47.339Z,2.25
2022-08-12T11:22:17.989Z,2.13
2022-08-12T11:24:51.341Z,2.42
2022-08-12T11:27:21.548Z,3.05
2022-08-12T11:30:05.948Z,2.65
2022-08-12T11:32:38.513Z,2.78
2022-08-12T11:35:08.772Z,2.63
2022-08-12T11:37:58.866Z,2.63
2022-08-12T11:40:29.687Z,4.50
2022-08-12T11:43:18.936Z,3.50
2022-08-12T11:45:47.556Z,4.18
2022-08-12T11:48:26.656Z,4.38
2022-08-12T11:50:55.797Z,7.05
2022-08-12T11:53:57.059Z,2.05
2022-08-12T11:56:14.832Z,2.72
2022-08-12T12:02:01.267Z,4.07
2022-08-12T12:04:29.199Z,3.97
2022-08-12T12:07:06.678Z,2.78
2022-08-12T12:09:52.235Z,4.80
2022-08-12T12:12:25.217Z,2.88
2022-08-12T12:14:54.236Z,2.30
2022-08-12T12:17:23.767Z,2.53
2022-08-12T12:19:53.258Z,2.35
2022-08-12T12:22:23.051Z,5.72
2022-08-12T12:24:55.518Z,4.70
2022-08-12T12:28:04.027Z,4.38
2022-08-12T12:30:25.673Z,4.15
2022-08-12T12:32:58.680Z,2.97
2022-08-12T12:36:18.526Z,2.85
2022-08-12T12:38:17.570Z,3.20
2022-08-12T12:40:50.502Z,2.45
2022-08-12T12:43:28.389Z,3.25
2022-08-12T12:45:57.527Z,2.78
2022-08-12T12:48:25.903Z,2.13
2022-08-12T12:51:09.847Z,3.97
2022-08-12T12:54:05.252Z,6.82
2022-08-12T12:56:34.776Z,3.03
2022-08-12T12:59:06.170Z,2.95
2022-08-12T13:01:42.021Z,2.10
2022-08-12T13:11:53.353Z,3.17
2022-08-12T13:14:29.036Z,2.40
2022-08-12T13:17:02.824Z,4.78
2022-08-12T13:19:37.721Z,3.25
2022-08-12T13:22:20.326Z,5.30
2022-08-12T13:24:52.166Z,2.50
2022-08-12T13:27:34.941Z,5.22
2022-08-12T13:30:10.651Z,2.55
2022-08-12T13:32:40.805Z,2.50
2022-08-12T13:35:19.330Z,2.70
2022-08-12T13:38:02.733Z,3.55
2022-08-12T13:40:33.782Z,3.63
2022-08-12T13:43:06.998Z,2.65
2022-08-12T13:45:37.079Z,3.40
2022-08-12T13:48:06.912Z,2.00
2022-08-12T13:50:37.589Z,2.88
2022-08-12T13:53:24.605Z,3.75
2022-08-12T13:56:01.654Z,5.80
2022-08-12T13:58:32.928Z,2.30
2022-08-12T14:01:06.457Z,2.20
2022-08-12T14:03:50.444Z,2.15
2022-08-12T14:06:20.734Z,5.38
2022-08-12T14:08:50.677Z,2.85
2022-08-12T14:11:25.228Z,3.90
2022-08-12T14:14:05.386Z,1.60
2022-08-12T14:16:48.972Z,3.17
2022-08-12T14:19:25.624Z,2.25
2022-08-12T14:22:05.489Z,11.98
2022-08-12T14:24:40.351Z,1.35
2022-08-12T14:27:11.297Z,2.55
2022-08-12T14:30:15.106Z,3.20
2022-08-12T14:32:39.495Z,3.28
2022-08-12T14:35:12.246Z,1.85
2022-08-12T14:37:55.508Z,4.15
2022-08-12T14:40:35.177Z,2.50
2022-08-12T14:43:06.391Z,4.95
2022-08-12T14:45:48.866Z,4.20
2022-08-12T14:48:24.049Z,3.17
2022-08-12T14:52:16.176Z,1.98
2022-08-12T14:55:28.421Z,2.95
2022-08-12T14:57:05.553Z,7.55
2022-08-12T14:59:55.697Z,6.07
2022-08-12T15:02:29.727Z,2.13
2022-08-12T15:05:03.452Z,4.75
2022-08-12T15:07:34.205Z,5.88
2022-08-12T15:10:25.346Z,1.67
2022-08-12T15:13:07.185Z,7.63
2022-08-12T15:15:43.826Z,3.38
2022-08-12T15:18:15.700Z,4.05
2022-08-12T15:20:54.537Z,2.25
2022-08-12T15:23:23.937Z,4.18
2022-08-12T15:26:02.850Z,2.72
2022-08-12T15:28:33.749Z,2.90
2022-08-12T15:31:03.333Z,3.50
2022-08-12T15:33:50.504Z,4.45
2022-08-12T15:36:53.963Z,3.22
2022-08-12T15:39:17.130Z,4.45
2022-08-12T15:41:50.088Z,3.83
2022-08-12T15:44:41.796Z,2.13
2022-08-12T15:47:09.068Z,2.45
2022-08-12T15:49:43.460Z,2.35
2022-08-12T15:52:30.303Z,3.65
2022-08-12T15:55:06.154Z,2.42
2022-08-12T15:57:41.619Z,3.83
2022-08-12T16:00:32.169Z,9.82
2022-08-12T16:03:01.901Z,6.63
2022-08-12T16:06:13.032Z,3.65
2022-08-12T16:08:27.654Z,4.80
2022-08-12T16:10:56.774Z,4.05
2022-08-12T16:13:34.266Z,6.47
2022-08-12T16:16:23.124Z,6.40
2022-08-12T16:18:59.459Z,3.45
2022-08-12T16:21:51.965Z,3.80
2022-08-12T16:24:21.814Z,4.47
2022-08-12T16:26:51.383Z,8.48
2022-08-12T16:29:38.637Z,9.52
2022-08-12T16:32:19.431Z,6.90
2022-08-12T16:34:55.525Z,9.30
2022-08-12T16:37:32.662Z,10.95
2022-08-12T16:40:14.979Z,13.52
2022-08-12T16:42:54.277Z,10.55
2022-08-12T16:46:04.293Z,13.20
2022-08-12T16:48:34.145Z,11.30
2022-08-12T16:51:04.940Z,10.05
2022-08-12T16:53:44.672Z,10.50
2022-08-12T16:56:17.136Z,11.02
2022-08-12T16:58:47.807Z,15.02
2022-08-12T17:01:19.724Z,11.57
2022-08-12T17:04:08.864Z,11.05
2022-08-12T17:06:43.562Z,12.07
2022-08-12T17:09:17.631Z,11.38
2022-08-12T17:11:49.715Z,10.68
2022-08-12T17:14:23.033Z,9.30
2022-08-12T17:16:55.044Z,8.70
2022-08-12T17:20:28.960Z,8.32
2022-08-12T17:22:16.456Z,11.60
2022-08-12T17:24:54.794Z,7.82
2022-08-12T17:27:30.879Z,8.88
2022-08-12T17:30:18.500Z,8.88
2022-08-12T17:32:53.412Z,8.32
2022-08-12T17:35:37.384Z,10.73
2022-08-12T17:38:13.713Z,7.65
2022-08-12T17:40:44.014Z,8.07
2022-08-12T17:43:56.180Z,9.90
2022-08-12T17:46:13.086Z,8.57
2022-08-12T17:48:57.681Z,11.80
2022-08-12T17:51:31.279Z,8.10
2022-08-12T17:54:10.465Z,9.13
2022-08-12T17:56:43.594Z,7.13
2022-08-12T17:59:48.230Z,8.88
2022-08-12T18:02:25.672Z,10.52
2022-08-12T18:05:04.753Z,9.85
2022-08-12T18:07:39.234Z,11.43
2022-08-12T18:10:09.011Z,9.90
2022-08-12T18:12:42.724Z,8.75
2022-08-12T18:15:47.717Z,12.55
2022-08-12T18:18:16.823Z,10.70
2022-08-12T18:20:46.289Z,9.35
2022-08-12T18:23:14.794Z,10.70
2022-08-12T18:26:16.877Z,9.77
2022-08-12T18:28:47.988Z,10.95
2022-08-12T18:31:23.365Z,9.68
2022-08-12T18:33:53.151Z,9.02
2022-08-12T18:36:22.257Z,8.70
2022-08-12T18:38:56.235Z,11.27
2022-08-12T18:41:34.440Z,10.25
2022-08-12T18:44:09.695Z,11.55
2022-08-12T18:46:53.879Z,10.73
2022-08-12T18:49:30.770Z,8.93
2022-08-12T18:52:08.604Z,10.27
2022-08-12T18:54:48.943Z,13.30
2022-08-12T18:57:45.809Z,11.50
2022-08-12T19:00:21.286Z,11.55
2022-08-12T19:02:53.548Z,9.73
2022-08-12T19:05:53.143Z,10.25
2022-08-12T19:08:17.269Z,10.02
2022-08-12T19:10:51.149Z,8.73
2022-08-12T19:13:38.257Z,9.25
2022-08-12T19:16:10.891Z,9.25
2022-08-12T19:18:44.756Z,8.93
2022-08-12T19:21:16.909Z,9.10
2022-08-12T19:24:09.657Z,10.23
2022-08-12T19:26:37.610Z,12.63
2022-08-12T19:29:08.345Z,9.70
2022-08-12T19:31:45.410Z,9.77
2022-08-12T19:37:27.373Z,10.13
2022-08-12T19:40:31.957Z,9.73
2022-08-12T19:43:01.440Z,10.50
2022-08-12T19:45:43.252Z,11.15
2022-08-12T19:48:18.429Z,10.35
2022-08-12T19:50:55.632Z,9.50
2022-08-12T19:53:30.259Z,8.57
2022-08-12T19:56:18.691Z,13.07
2022-08-12T19:58:53.880Z,9.50
2022-08-12T20:01:22.691Z,11.63
2022-08-12T20:03:59.135Z,10.82
2022-08-12T20:06:39.610Z,9.95
2022-08-12T20:09:09.213Z,12.60
2022-08-12T20:12:13.401Z,12.55
2022-08-12T20:14:29.092Z,8.02
2022-08-12T20:17:02.358Z,12.02
2022-08-12T20:20:01.251Z,11.57
2022-08-12T20:22:29.688Z,12.27
2022-08-12T20:25:09.157Z,13.10
2022-08-12T20:28:05.315Z,9.77
2022-08-12T20:30:37.335Z,15.98
2022-08-12T20:33:19.060Z,10.05
2022-08-12T20:36:14.432Z,11.30
2022-08-12T20:38:53.404Z,11.32
2022-08-12T20:41:30.327Z,10.90
2022-08-12T20:44:00.955Z,11.15
2022-08-12T20:46:33.014Z,11.40
2022-08-12T20:49:14.609Z,10.63
2022-08-12T20:51:55.501Z,8.55
2022-08-12T20:54:32.465Z,12.77
2022-08-12T20:57:10.007Z,10.52
2022-08-12T20:59:47.758Z,9.98
2022-08-12T21:02:24.643Z,9.27
2022-08-12T21:05:20.034Z,13.60
2022-08-12T21:07:51.725Z,10.63
2022-08-12T21:10:26.681Z,13.80
2022-08-12T21:12:56.058Z,12.43
2022-08-12T21:15:30.628Z,13.95
2022-08-12T21:18:28.436Z,11.25
2022-08-12T21:20:59.217Z,10.25
2022-08-12T21:23:30.990Z,11.75
2022-08-12T21:26:11.235Z,10.43
2022-08-12T21:28:43.073Z,11.13
2022-08-12T21:32:39.825Z,9.35
2022-08-12T21:34:22.143Z,10.43
2022-08-12T21:37:26.983Z,8.70
2022-08-12T21:39:56.202Z,9.02
2022-08-12T21:42:29.432Z,9.88
2022-08-12T21:45:47.637Z,12.02
2022-08-12T21:47:53.087Z,9.63
2022-08-12T21:50:22.129Z,11.15
2022-08-12T21:52:58.089Z,9.75
2022-08-12T21:55:26.817Z,13.88
2022-08-12T21:58:02.625Z,10.75
2022-08-12T22:00:36.757Z,9.23
2022-08-12T22:04:03.523Z,9.88
2022-08-12T22:06:31.463Z,10.60
2022-08-12T22:09:16.283Z,11.30
2022-08-12T22:11:49.151Z,12.55
2022-08-12T22:14:28.372Z,11.77
2022-08-12T22:17:04.995Z,10.27
2022-08-12T22:19:36.563Z,8.90
2022-08-12T22:22:05.654Z,10.10
2022-08-12T22:24:34.215Z,9.52
2022-08-12T22:27:18.070Z,9.23
2022-08-12T22:30:27.932Z,11.30
2022-08-12T22:32:56.296Z,10.95
2022-08-12T22:35:55.237Z,12.82
2022-08-12T22:38:23.918Z,9.98
2022-08-12T22:41:01.999Z,8.85
2022-08-12T22:44:00.982Z,9.80
2022-08-12T22:46:51.963Z,12.52
2022-08-12T22:49:36.325Z,13.93
2022-08-12T22:52:12.884Z,9.23
2022-08-12T22:55:02.643Z,13.15
2022-08-12T22:57:49.413Z,12.23
2022-08-12T23:00:24.170Z,9.50
2022-08-12T23:03:02.958Z,9.32
2022-08-12T23:05:57.483Z,10.25
2022-08-12T23:08:30.167Z,8.88
2022-08-12T23:11:05.830Z,11.10
2022-08-12T23:13:54.953Z,12.45
2022-08-12T23:16:34.369Z,10.63
2022-08-12T23:19:22.785Z,10.85
2022-08-12T23:22:05.356Z,8.50
2022-08-12T23:24:55.541Z,11.82
2022-08-12T23:27:52.257Z,9.68
2022-08-12T23:30:31.354Z,9.80
2022-08-12T23:33:01.639Z,10.55
2022-08-12T23:35:45.957Z,9.35
2022-08-12T23:38:30.868Z,10.73
2022-08-12T23:41:08.341Z,9.45
2022-08-12T23:43:42.809Z,10.18
2022-08-12T23:46:25.842Z,10.25
2022-08-12T23:48:58.498Z,8.68
2022-08-12T23:51:32.161Z,10.52
2022-08-12T23:54:07.233Z,10.52
2022-08-12T23:56:37.340Z,9.23
2022-08-12T23:59:09.160Z,10.82
